Time;durP1;ratioP1;P1;durP2;ratioP2;P2;SDS_P1;SDS_P2;PMS_P1;PMS_P2;Temp;Humidity;BMP_temperature;BMP_pressure;BME280_temperature;BME280_humidity;BME280_pressure;Samples;Min_cycle;Max_cycle;Signal;HPM_P1;HPM_P2
2024/04/26 00:02:24;;;;;;;;;;;;;;;14.62;57.06;98042.88;6582919;21;19924;-79
2024/04/26 00:04:49;;;;;;;;;;;;;;;14.59;56.87;98038.72;6582431;21;19928;-79
2024/04/26 00:07:15;;;;;;;;;;;;;;;14.54;56.92;98041.00;6537119;21;19921;-79
2024/04/26 00:09:40;;;;;;;;;;;;;;;14.52;56.71;98050.03;6582108;21;19921;-79
2024/04/26 00:12:05;;;;;;;;;;;;;;;14.51;57.15;98054.44;6582233;21;19933;-79
2024/04/26 00:14:34;;;;;;;;;;;;;;;14.49;57.28;98051.16;6580119;21;19928;-78
2024/04/26 00:17:00;;;;;;;;;;;;;;;14.48;57.05;98052.16;6580057;21;19933;-79
2024/04/26 00:19:26;;;;;;;;;;;;;;;14.45;57.33;98058.56;6536530;21;19921;-79
2024/04/26 00:21:51;;;;;;;;;;;;;;;14.44;57.19;98062.16;6579489;21;20310;-81
2024/04/26 00:24:19;;;;;;;;;;;;;;;14.44;57.34;98058.72;6580433;21;19932;-79
2024/04/26 00:26:50;;;;;;;;;;;;;;;14.42;57.43;98056.25;6582604;21;19921;-79
2024/04/26 00:29:15;;;;;;;;;;;;;;;14.42;57.07;98058.88;6579672;21;19930;-79
2024/04/26 00:31:40;;;;;;;;;;;;;;;14.43;57.56;98052.63;6580168;21;19928;-79
2024/04/26 00:34:06;;;;;;;;;;;;;;;14.44;57.70;98056.09;6580562;21;19921;-79
2024/04/26 00:36:32;;;;;;;;;;;;;;;14.45;57.68;98060.34;6536977;21;19933;-79
2024/04/26 00:38:57;;;;;;;;;;;;;;;14.46;57.81;98060.19;6580094;21;19929;-79
2024/04/26 00:41:22;;;;;;;;;;;;;;;14.48;58.22;98065.28;6579739;21;20336;-79
2024/04/26 00:43:55;;;;;;;;;;;;;;;14.52;58.03;98065.81;6536503;21;19929;-79
2024/04/26 00:46:22;;;;;;;;;;;;;;;14.51;58.41;98064.97;6581427;21;19927;-79
2024/04/26 00:48:48;;;;;;;;;;;;;;;14.53;58.01;98068.28;6580058;21;19921;-79
2024/04/26 00:51:13;;;;;;;;;;;;;;;14.54;58.18;98069.09;6536146;21;20329;-79
2024/04/26 00:53:39;;;;;;;;;;;;;;;14.55;58.05;98071.56;6579831;21;19921;-80
2024/04/26 00:56:05;;;;;;;;;;;;;;;14.56;58.10;98077.63;6580138;21;20226;-79
2024/04/26 00:58:32;;;;;;;;;;;;;;;14.57;57.97;98072.19;6579559;21;19921;-79
2024/04/26 01:00:58;;;;;;;;;;;;;;;14.58;57.54;98073.00;6582399;21;19921;-79
2024/04/26 01:03:23;;;;;;;;;;;;;;;14.59;57.47;98077.31;6580319;21;20330;-80
2024/04/26 01:05:48;;;;;;;;;;;;;;;14.62;57.52;98077.00;6580291;21;19991;-79
2024/04/26 01:08:15;;;;;;;;;;;;;;;14.63;57.58;98081.28;6582151;21;19931;-79
2024/04/26 01:10:40;;;;;;;;;;;;;;;14.62;57.48;98090.97;6582706;21;20310;-79
2024/04/26 01:13:06;;;;;;;;;;;;;;;14.62;57.73;98098.03;6580282;21;19968;-79
2024/04/26 01:15:32;;;;;;;;;;;;;;;14.62;57.71;98101.47;6581464;21;19925;-79
2024/04/26 01:17:57;;;;;;;;;;;;;;;14.65;57.31;98105.59;6580156;21;19921;-79
2024/04/26 01:20:22;;;;;;;;;;;;;;;14.64;57.27;98106.56;6578831;21;20319;-79
2024/04/26 01:22:49;;;;;;;;;;;;;;;14.67;57.05;98113.31;6579968;21;19933;-80
2024/04/26 01:25:15;;;;;;;;;;;;;;;14.65;56.91;98114.28;6579605;21;20318;-79
2024/04/26 01:27:40;;;;;;;;;;;;;;;14.63;56.96;98111.00;6582352;21;19922;-79
2024/04/26 01:30:08;;;;;;;;;;;;;;;14.61;57.61;98112.97;6536716;21;19991;-79
2024/04/26 01:32:34;;;;;;;;;;;;;;;14.57;57.81;98114.22;6537659;21;19921;-80
2024/04/26 01:35:00;;;;;;;;;;;;;;;14.58;57.55;98122.91;6580785;21;19921;-80
2024/04/26 01:37:25;;;;;;;;;;;;;;;14.53;57.48;98123.41;6579555;21;20603;-80
2024/04/26 01:39:51;;;;;;;;;;;;;;;14.49;57.81;98127.31;6578274;21;19933;-79
2024/04/26 01:42:16;;;;;;;;;;;;;;;14.47;57.93;98132.72;6582992;21;19922;-79
2024/04/26 01:44:42;;;;;;;;;;;;;;;14.44;58.21;98133.03;6581491;21;19921;-78
2024/04/26 01:47:07;;;;;;;;;;;;;;;14.41;58.37;98140.44;6582557;21;20316;-79
2024/04/26 01:49:35;;;;;;;;;;;;;;;14.40;58.25;98136.94;6582951;21;20229;-79
2024/04/26 01:52:00;;;;;;;;;;;;;;;14.40;58.57;98131.69;6579915;21;19921;-80
2024/04/26 01:54:28;;;;;;;;;;;;;;;14.40;58.38;98139.56;6580406;21;19921;-79
2024/04/26 01:56:53;;;;;;;;;;;;;;;14.37;58.11;98132.00;6579570;21;19929;-79
2024/04/26 01:59:19;;;;;;;;;;;;;;;14.37;58.53;98139.06;6579839;21;19921;-79
2024/04/26 02:01:44;;;;;;;;;;;;;;;14.35;58.17;98135.78;6579763;21;19929;-79
2024/04/26 02:04:11;;;;;;;;;;;;;;;14.34;58.30;98142.81;6581920;21;19930;-79
2024/04/26 02:06:37;;;;;;;;;;;;;;;14.35;58.28;98141.03;6580316;21;19963;-79
2024/04/26 02:09:02;;;;;;;;;;;;;;;14.35;57.91;98144.47;6536177;21;19921;-79
2024/04/26 02:11:28;;;;;;;;;;;;;;;14.36;57.97;98156.63;6579720;21;19921;-79
2024/04/26 02:13:54;;;;;;;;;;;;;;;14.36;58.32;98163.69;6536708;21;19991;-79
2024/04/26 02:16:19;;;;;;;;;;;;;;;14.36;58.31;98163.69;6535932;21;20360;-80
2024/04/26 02:18:47;;;;;;;;;;;;;;;14.34;58.49;98165.63;6581997;21;20010;-80
2024/04/26 02:21:12;;;;;;;;;;;;;;;14.36;58.33;98179.44;6537243;21;19932;-80
2024/04/26 02:23:37;;;;;;;;;;;;;;;14.37;58.41;98179.28;6579898;21;19921;-80
2024/04/26 02:26:03;;;;;;;;;;;;;;;14.36;58.44;98177.66;6579569;21;19921;-80
2024/04/26 02:28:28;;;;;;;;;;;;;;;14.35;58.63;98181.25;6579664;21;19927;-80
2024/04/26 02:30:54;;;;;;;;;;;;;;;14.34;58.99;98189.28;6582196;21;19968;-80
2024/04/26 02:33:19;;;;;;;;;;;;;;;14.33;59.16;98188.47;6582051;21;19921;-79
2024/04/26 02:35:44;;;;;;;;;;;;;;;14.34;58.62;98184.84;6536733;21;20317;-80
2024/04/26 02:38:10;;;;;;;;;;;;;;;14.35;59.07;98190.94;6536295;21;19921;-79
2024/04/26 02:40:37;;;;;;;;;;;;;;;14.34;58.91;98192.72;6582169;21;19922;-80
2024/04/26 02:43:05;;;;;;;;;;;;;;;14.34;59.20;98194.53;6581842;21;19929;-79
2024/04/26 02:45:30;;;;;;;;;;;;;;;14.35;58.76;98204.06;6581943;21;19928;-80
2024/04/26 02:47:55;;;;;;;;;;;;;;;14.34;58.97;98203.22;6537761;21;20237;-79
2024/04/26 02:50:20;;;;;;;;;;;;;;;14.35;58.96;98206.69;6584204;21;19929;-80
2024/04/26 02:52:46;;;;;;;;;;;;;;;14.32;58.62;98207.81;6583749;21;19925;-80
2024/04/26 02:55:11;;;;;;;;;;;;;;;14.31;58.75;98216.66;6583748;21;19933;-80
2024/04/26 02:57:37;;;;;;;;;;;;;;;14.27;58.66;98215.31;6583607;21;19991;-80
2024/04/26 03:00:02;;;;;;;;;;;;;;;14.24;58.10;98215.63;6584240;21;19929;-80
2024/04/26 03:02:27;;;;;;;;;;;;;;;14.19;58.53;98229.22;6581572;21;20314;-80
2024/04/26 03:04:55;;;;;;;;;;;;;;;14.18;58.00;98231.97;6583554;21;19928;-79
2024/04/26 03:07:22;;;;;;;;;;;;;;;14.14;57.89;98231.47;6581587;21;19991;-80
2024/04/26 03:09:49;;;;;;;;;;;;;;;14.13;58.28;98232.44;6538104;21;19922;-80
2024/04/26 03:12:14;;;;;;;;;;;;;;;14.07;58.05;98233.03;6581826;21;19921;-80
2024/04/26 03:14:39;;;;;;;;;;;;;;;14.06;57.97;98231.41;6581150;21;19922;-81
2024/04/26 03:17:08;;;;;;;;;;;;;;;14.05;58.05;98241.06;6537842;21;19930;-80
2024/04/26 03:19:36;;;;;;;;;;;;;;;14.02;58.07;98238.75;6583372;21;19929;-80
2024/04/26 03:22:04;;;;;;;;;;;;;;;13.99;57.75;98240.84;6537361;21;20284;-80
2024/04/26 03:24:32;;;;;;;;;;;;;;;13.94;57.65;98252.63;6538331;21;20224;-80
2024/04/26 03:26:59;;;;;;;;;;;;;;;13.93;57.41;98256.22;6580719;21;19928;-80
2024/04/26 03:29:25;;;;;;;;;;;;;;;13.94;57.24;98263.09;6579455;21;19991;-80
2024/04/26 03:31:53;;;;;;;;;;;;;;;13.92;57.43;98257.19;6582071;21;19933;-80
2024/04/26 03:34:18;;;;;;;;;;;;;;;13.89;57.29;98262.75;6539098;21;19924;-80
2024/04/26 03:36:44;;;;;;;;;;;;;;;13.89;57.27;98260.13;6580650;21;20218;-80
2024/04/26 03:39:10;;;;;;;;;;;;;;;13.85;57.48;98269.28;6538240;21;19928;-79
2024/04/26 03:41:36;;;;;;;;;;;;;;;13.85;57.27;98264.03;6583148;21;19922;-81
2024/04/26 03:44:03;;;;;;;;;;;;;;;13.85;57.35;98271.91;6537242;21;19959;-75
2024/04/26 03:46:29;;;;;;;;;;;;;;;13.87;57.31;98271.75;6583098;21;19932;-74
2024/04/26 03:48:56;;;;;;;;;;;;;;;13.90;56.70;98279.31;6537701;21;19928;-73
2024/04/26 03:51:22;;;;;;;;;;;;;;;13.96;60.08;98281.31;6537413;21;20016;-75
2024/04/26 03:53:47;;;;;;;;;;;;;;;15.04;71.85;98275.91;6583332;21;19929;-78
2024/04/26 03:56:12;;;;;;;;;;;;;;;15.77;68.23;98286.88;6581512;21;19958;-74
2024/04/26 03:58:40;;;;;;;;;;;;;;;17.19;62.44;98285.66;6537593;21;20302;-76
2024/04/26 04:01:08;;;;;;;;;;;;;;;17.09;61.93;98292.94;6583461;21;20333;-83
2024/04/26 04:03:33;;;;;;;;;;;;;;;17.13;61.13;98296.88;6538367;21;20321;-78
2024/04/26 04:05:59;;;;;;;;;;;;;;;17.22;60.82;98297.66;6583280;21;19925;-76
2024/04/26 04:08:24;;;;;;;;;;;;;;;17.49;61.26;98305.16;6583510;21;19929;-77
2024/04/26 04:10:49;;;;;;;;;;;;;;;17.92;60.30;98315.34;6580739;21;19921;-76
2024/04/26 04:13:21;;;;;;;;;;;;;;;18.25;59.45;98321.25;6580445;21;19933;-73
2024/04/26 04:15:46;;;;;;;;;;;;;;;18.41;58.50;98324.75;6580712;21;19922;-72
2024/04/26 04:18:13;;;;;;;;;;;;;;;18.57;58.29;98326.44;6580616;21;19991;-73
2024/04/26 04:20:41;;;;;;;;;;;;;;;18.70;58.46;98324.00;6537465;21;19953;-78
2024/04/26 04:23:06;;;;;;;;;;;;;;;18.82;57.79;98332.34;6537715;21;20329;-73
2024/04/26 04:25:31;;;;;;;;;;;;;;;18.95;57.78;98324.63;6536476;21;19950;-74
2024/04/26 04:27:57;;;;;;;;;;;;;;;19.14;56.65;98322.47;6545736;21;19921;-80
2024/04/26 04:30:22;;;;;;;;;;;;;;;19.85;54.04;98316.66;6582916;21;19928;-75
2024/04/26 04:32:47;;;;;;;;;;;;;;;21.40;48.94;98322.19;6579738;21;19921;-74
2024/04/26 04:35:13;;;;;;;;;;;;;;;22.74;46.01;98337.47;6577155;21;19928;-76
2024/04/26 04:37:38;;;;;;;;;;;;;;;24.59;41.83;98330.03;6577192;21;20218;-74
2024/04/26 04:40:04;;;;;;;;;;;;;;;25.80;40.66;98333.09;6575984;21;20256;-72
2024/04/26 04:42:29;;;;;;;;;;;;;;;25.76;40.22;98336.44;6576468;21;20230;-73
2024/04/26 04:44:57;;;;;;;;;;;;;;;25.69;40.05;98339.19;6532120;21;19921;-73
2024/04/26 04:47:24;;;;;;;;;;;;;;;26.70;37.44;98336.75;6578966;21;19929;-73
2024/04/26 04:49:49;;;;;;;;;;;;;;;27.30;36.57;98332.22;6577281;21;19921;-71
2024/04/26 04:52:15;;;;;;;;;;;;;;;27.67;35.00;98342.63;6536418;21;19921;-72
2024/04/26 04:54:40;;;;;;;;;;;;;;;28.37;33.66;98343.41;6579975;21;20289;-74
2024/04/26 04:57:06;;;;;;;;;;;;;;;30.01;31.28;98344.09;6579516;21;20329;-73
2024/04/26 04:59:31;;;;;;;;;;;;;;;31.15;29.99;98347.50;6582303;21;19921;-74
2024/04/26 05:01:56;;;;;;;;;;;;;;;32.07;28.00;98352.44;6536312;21;20305;-73
2024/04/26 05:04:22;;;;;;;;;;;;;;;31.82;28.14;98353.19;6579903;21;19921;-74
2024/04/26 05:06:47;;;;;;;;;;;;;;;32.50;27.20;98341.44;6536063;21;20277;-75
2024/04/26 05:09:12;;;;;;;;;;;;;;;33.63;26.11;98343.94;6578823;21;19929;-75
2024/04/26 05:11:38;;;;;;;;;;;;;;;34.62;24.45;98344.97;6580282;21;19921;-74
2024/04/26 05:14:03;;;;;;;;;;;;;;;35.55;23.85;98354.88;6576426;21;19949;-73
2024/04/26 05:16:28;;;;;;;;;;;;;;;35.91;22.91;98357.16;6576584;21;20309;-74
2024/04/26 05:18:53;;;;;;;;;;;;;;;34.63;24.94;98353.91;6577467;21;20024;-74
2024/04/26 05:21:19;;;;;;;;;;;;;;;35.55;23.00;98363.03;6577168;21;19925;-73
2024/04/26 05:23:44;;;;;;;;;;;;;;;35.37;23.63;98362.69;6577347;21;19929;-74
2024/04/26 05:26:09;;;;;;;;;;;;;;;34.50;24.45;98352.66;6577400;21;19991;-75
2024/04/26 05:28:35;;;;;;;;;;;;;;;34.16;24.70;98356.09;6582206;21;19929;-75
2024/04/26 05:31:00;;;;;;;;;;;;;;;33.72;24.54;98366.66;6580431;21;20217;-74
2024/04/26 05:33:25;;;;;;;;;;;;;;;33.60;24.80;98357.22;6579752;21;20042;-75
2024/04/26 05:35:51;;;;;;;;;;;;;;;34.61;23.45;98365.03;6580008;21;20221;-75
2024/04/26 05:38:17;;;;;;;;;;;;;;;34.69;24.02;98364.41;6582260;21;20301;-75
2024/04/26 05:40:44;;;;;;;;;;;;;;;35.76;22.22;98369.84;6580146;21;19921;-75
2024/04/26 05:43:09;;;;;;;;;;;;;;;36.35;21.70;98369.56;6582236;21;19921;-75
2024/04/26 05:45:35;;;;;;;;;;;;;;;36.96;21.22;98362.31;6579689;21;19928;-76
2024/04/26 05:48:01;;;;;;;;;;;;;;;37.37;20.51;98363.47;6579456;21;19929;-76
2024/04/26 05:50:26;;;;;;;;;;;;;;;37.69;20.34;98370.75;6579787;21;19921;-75
2024/04/26 05:52:51;;;;;;;;;;;;;;;38.02;19.10;98367.84;6579981;21;19949;-77
2024/04/26 05:55:16;;;;;;;;;;;;;;;37.80;20.02;98377.56;6536248;21;19928;-77
2024/04/26 05:57:42;;;;;;;;;;;;;;;37.22;19.92;98378.19;6580099;21;19933;-75
2024/04/26 06:00:08;;;;;;;;;;;;;;;37.12;20.34;98384.59;6579743;21;19921;-74
2024/04/26 06:02:33;;;;;;;;;;;;;;;36.54;20.41;98378.50;6582178;21;19927;-74
2024/04/26 06:05:08;;;;;;;;;;;;;;;35.84;21.34;98385.47;6579296;21;19928;-76
2024/04/26 06:07:34;;;;;;;;;;;;;;;36.15;20.75;98393.22;6579183;21;19928;-74
2024/04/26 06:09:59;;;;;;;;;;;;;;;36.43;20.67;98393.34;6579473;21;20223;-75
2024/04/26 06:12:24;;;;;;;;;;;;;;;37.01;20.09;98394.06;6579395;21;20325;-75
2024/04/26 06:14:53;;;;;;;;;;;;;;;37.44;19.67;98400.06;6580662;21;19921;-74
2024/04/26 06:17:18;;;;;;;;;;;;;;;37.81;19.36;98397.44;6581841;21;19921;-75
2024/04/26 06:19:43;;;;;;;;;;;;;;;38.04;19.22;98398.31;6584230;21;19928;-75
2024/04/26 06:22:09;;;;;;;;;;;;;;;38.16;18.35;98408.69;6584050;21;20233;-75
2024/04/26 06:24:34;;;;;;;;;;;;;;;38.27;18.38;98412.81;6583967;21;19929;-74
2024/04/26 06:26:59;;;;;;;;;;;;;;;38.28;19.04;98416.34;6537952;21;19987;-75
2024/04/26 06:29:24;;;;;;;;;;;;;;;38.33;18.88;98418.94;6581557;21;19992;-74
2024/04/26 06:31:52;;;;;;;;;;;;;;;38.34;18.51;98418.63;6581333;21;19930;-74
2024/04/26 06:34:18;;;;;;;;;;;;;;;38.35;18.65;98413.97;6584355;21;19928;-76
2024/04/26 06:36:43;;;;;;;;;;;;;;;38.11;18.39;98422.41;6584003;21;19921;-75
2024/04/26 06:39:08;;;;;;;;;;;;;;;37.53;18.38;98415.69;6584444;21;19922;-74
2024/04/26 06:41:33;;;;;;;;;;;;;;;37.65;19.05;98413.25;6581817;21;20249;-75
2024/04/26 06:43:59;;;;;;;;;;;;;;;37.64;18.37;98417.91;6581931;21;19933;-76
2024/04/26 06:46:24;;;;;;;;;;;;;;;37.68;18.49;98423.53;6583989;21;19921;-74
2024/04/26 06:48:49;;;;;;;;;;;;;;;37.71;19.38;98427.63;6583692;21;20338;-75
2024/04/26 06:51:15;;;;;;;;;;;;;;;37.76;18.88;98422.84;6538051;21;19933;-75
2024/04/26 06:53:40;;;;;;;;;;;;;;;37.76;18.33;98432.97;6584202;21;19921;-75
2024/04/26 06:56:05;;;;;;;;;;;;;;;37.83;19.42;98433.38;6581672;21;20317;-74
2024/04/26 06:58:31;;;;;;;;;;;;;;;37.87;18.69;98433.56;6583570;21;20310;-75
2024/04/26 07:00:56;;;;;;;;;;;;;;;37.87;19.13;98436.28;6581987;21;20302;-76
2024/04/26 07:03:21;;;;;;;;;;;;;;;37.89;18.14;98432.16;6583419;21;19950;-77
2024/04/26 07:05:47;;;;;;;;;;;;;;;37.92;18.70;98439.69;6538028;21;19986;-74
2024/04/26 07:08:12;;;;;;;;;;;;;;;37.92;18.49;98431.50;6584050;21;19932;-75
2024/04/26 07:10:38;;;;;;;;;;;;;;;37.92;19.43;98438.88;6581555;21;20326;-75
2024/04/26 07:13:03;;;;;;;;;;;;;;;37.94;19.48;98442.09;6584044;21;19925;-75
2024/04/26 07:15:29;;;;;;;;;;;;;;;37.92;18.45;98436.97;6581724;21;19929;-74
2024/04/26 07:17:54;;;;;;;;;;;;;;;37.97;18.49;98442.31;6581965;21;19933;-75
2024/04/26 07:20:19;;;;;;;;;;;;;;;37.98;18.55;98440.38;6536607;21;19921;-74
2024/04/26 07:22:45;;;;;;;;;;;;;;;38.04;18.62;98443.81;6581429;21;19921;-74
2024/04/26 07:25:10;;;;;;;;;;;;;;;38.04;19.40;98447.34;6583995;21;19921;-75
2024/04/26 07:27:35;;;;;;;;;;;;;;;38.08;19.45;98447.53;6581852;21;19991;-74
2024/04/26 07:30:00;;;;;;;;;;;;;;;38.12;18.58;98443.91;6581209;21;20232;-75
2024/04/26 07:32:26;;;;;;;;;;;;;;;38.11;18.66;98445.03;6582052;21;19928;-75
2024/04/26 07:34:51;;;;;;;;;;;;;;;38.09;18.63;98444.50;6583691;21;19991;-74
2024/04/26 07:37:16;;;;;;;;;;;;;;;38.04;19.16;98452.00;6581116;21;19928;-74
2024/04/26 07:39:41;;;;;;;;;;;;;;;38.03;18.41;98445.72;6583384;21;19928;-75
2024/04/26 07:42:09;;;;;;;;;;;;;;;37.95;19.04;98447.25;6581527;21;19995;-74
2024/04/26 07:44:34;;;;;;;;;;;;;;;37.93;18.98;98444.03;6580908;21;19922;-75
2024/04/26 07:46:59;;;;;;;;;;;;;;;37.83;18.23;98450.50;6583676;21;20207;-74
2024/04/26 07:49:27;;;;;;;;;;;;;;;37.80;18.52;98453.03;6583603;21;20213;-75
2024/04/26 07:51:53;;;;;;;;;;;;;;;37.74;18.57;98448.81;6583067;21;20332;-74
2024/04/26 07:54:18;;;;;;;;;;;;;;;37.71;18.46;98452.94;6581474;21;19921;-74
2024/04/26 07:56:43;;;;;;;;;;;;;;;37.55;17.88;98454.31;6581105;21;19929;-75
2024/04/26 07:59:09;;;;;;;;;;;;;;;37.42;18.60;98455.94;6584045;21;19963;-74
2024/04/26 08:01:34;;;;;;;;;;;;;;;37.44;18.32;98448.25;6580851;21;20205;-74
2024/04/26 08:03:59;;;;;;;;;;;;;;;37.40;18.79;98455.41;6580808;21;20234;-74
2024/04/26 08:06:25;;;;;;;;;;;;;;;37.50;19.21;98457.94;6583347;21;19933;-74
2024/04/26 08:08:51;;;;;;;;;;;;;;;37.48;19.20;98457.44;6580677;21;19921;-75
2024/04/26 08:11:16;;;;;;;;;;;;;;;37.46;18.85;98462.38;6583412;21;20227;-75
2024/04/26 08:13:41;;;;;;;;;;;;;;;37.25;18.72;98467.38;6581561;21;19921;-74
2024/04/26 08:16:08;;;;;;;;;;;;;;;37.31;19.16;98460.75;6580838;21;19928;-74
2024/04/26 08:18:33;;;;;;;;;;;;;;;37.27;19.16;98460.56;6538071;21;19928;-74
2024/04/26 08:20:58;;;;;;;;;;;;;;;37.23;18.78;98462.25;6583427;21;20209;-74
2024/04/26 08:23:24;;;;;;;;;;;;;;;37.18;18.70;98462.31;6582779;21;19922;-74
2024/04/26 08:25:49;;;;;;;;;;;;;;;37.11;19.25;98464.59;6582481;21;19928;-75
2024/04/26 08:28:14;;;;;;;;;;;;;;;37.09;19.49;98461.38;6583499;21;20229;-75
2024/04/26 08:30:40;;;;;;;;;;;;;;;36.92;19.77;98456.50;6537357;21;19991;-74
2024/04/26 08:33:05;;;;;;;;;;;;;;;36.97;19.35;98469.19;6537242;21;20310;-76
2024/04/26 08:35:30;;;;;;;;;;;;;;;36.92;19.63;98457.28;6494158;21;20041;-75
2024/04/26 08:37:56;;;;;;;;;;;;;;;36.79;19.72;98470.88;6494123;21;19922;-74
2024/04/26 08:40:21;;;;;;;;;;;;;;;36.72;19.42;98471.19;6536861;21;19921;-74
2024/04/26 08:42:46;;;;;;;;;;;;;;;36.68;19.71;98472.91;6494312;21;19922;-74
2024/04/26 08:45:12;;;;;;;;;;;;;;;36.55;19.44;98461.66;6537280;21;20249;-74
2024/04/26 08:47:37;;;;;;;;;;;;;;;36.48;19.58;98472.09;6537472;21;20321;-74
2024/04/26 08:50:03;;;;;;;;;;;;;;;36.42;19.73;98470.56;6536968;21;19921;-74
2024/04/26 08:52:28;;;;;;;;;;;;;;;36.27;19.90;98471.59;6493750;21;19929;-74
2024/04/26 08:54:53;;;;;;;;;;;;;;;36.10;19.06;98463.88;6537504;21;19921;-75
2024/04/26 08:57:19;;;;;;;;;;;;;;;35.91;19.50;98466.56;6536817;21;19922;-75
2024/04/26 08:59:48;;;;;;;;;;;;;;;35.84;19.38;98460.72;6537532;21;19921;-73
2024/04/26 09:02:14;;;;;;;;;;;;;;;35.62;19.90;98461.19;6537262;21;20316;-74
2024/04/26 09:04:40;;;;;;;;;;;;;;;35.47;19.52;98462.16;6582815;21;19922;-74
2024/04/26 09:07:05;;;;;;;;;;;;;;;35.44;20.04;98466.28;6537545;21;20324;-74
2024/04/26 09:09:30;;;;;;;;;;;;;;;35.31;20.12;98461.50;6536598;21;19929;-74
2024/04/26 09:12:01;;;;;;;;;;;;;;;35.13;19.73;98471.16;6536730;21;19999;-75
2024/04/26 09:14:27;;;;;;;;;;;;;;;35.01;19.57;98465.28;6494888;21;19992;-76
2024/04/26 09:16:52;;;;;;;;;;;;;;;34.87;19.87;98473.25;6536812;21;19933;-75
2024/04/26 09:19:18;;;;;;;;;;;;;;;34.81;21.24;98463.56;6536853;21;19928;-75
2024/04/26 09:21:43;;;;;;;;;;;;;;;34.66;20.41;98459.84;6582885;21;20310;-74
2024/04/26 09:24:10;;;;;;;;;;;;;;;34.66;20.53;98461.75;6536373;21;20229;-74
2024/04/26 09:26:37;;;;;;;;;;;;;;;34.55;20.24;98463.72;6570667;21;20318;-74
2024/04/26 09:29:02;;;;;;;;;;;;;;;34.38;20.98;98464.91;6580690;21;19928;-74
2024/04/26 09:31:27;;;;;;;;;;;;;;;34.29;22.10;98454.94;6578824;21;19921;-75
2024/04/26 09:33:53;;;;;;;;;;;;;;;34.20;21.42;98460.91;6535489;21;20029;-75
2024/04/26 09:36:18;;;;;;;;;;;;;;;34.08;21.35;98457.72;6580414;21;19928;-75
2024/04/26 09:38:44;;;;;;;;;;;;;;;33.86;21.32;98456.19;6537267;21;19928;-75
2024/04/26 09:41:09;;;;;;;;;;;;;;;33.83;22.22;98461.34;6536583;21;19921;-76
2024/04/26 09:43:34;;;;;;;;;;;;;;;33.71;21.79;98454.34;6535829;21;19921;-75
2024/04/26 09:45:59;;;;;;;;;;;;;;;33.65;21.33;98457.31;6536070;21;20348;-76
2024/04/26 09:48:25;;;;;;;;;;;;;;;33.60;22.20;98463.53;6579572;21;19933;-74
2024/04/26 09:50:51;;;;;;;;;;;;;;;33.37;22.02;98467.66;6582148;21;19988;-74
2024/04/26 09:53:16;;;;;;;;;;;;;;;33.03;22.78;98467.41;6579772;21;19991;-74
2024/04/26 09:55:41;;;;;;;;;;;;;;;32.61;23.25;98480.84;6580557;21;19928;-76
2024/04/26 09:58:07;;;;;;;;;;;;;;;32.33;22.88;98476.75;6580214;21;19945;-74
2024/04/26 10:00:33;;;;;;;;;;;;;;;32.08;23.10;98472.03;6535119;21;19921;-74
2024/04/26 10:03:00;;;;;;;;;;;;;;;31.80;23.71;98476.78;6579290;21;19921;-73
2024/04/26 10:05:25;;;;;;;;;;;;;;;31.73;23.32;98476.19;6580423;21;19987;-74
2024/04/26 10:07:57;;;;;;;;;;;;;;;31.62;24.07;98475.34;6580014;21;19921;-76
2024/04/26 10:10:29;;;;;;;;;;;;;;;31.58;23.47;98478.81;6581739;21;19921;-74
2024/04/26 10:13:00;;;;;;;;;;;;;;;31.24;24.02;98474.53;6580485;21;19937;-74
2024/04/26 10:15:26;;;;;;;;;;;;;;;30.98;24.39;98476.19;6580291;21;19950;-74
2024/04/26 10:17:51;;;;;;;;;;;;;;;30.80;24.06;98474.66;6579320;21;19929;-74
2024/04/26 10:20:20;;;;;;;;;;;;;;;30.57;25.27;98482.00;6581899;21;20217;-75
2024/04/26 10:22:46;;;;;;;;;;;;;;;30.52;25.00;98481.13;6579493;21;19921;-74
2024/04/26 10:25:24;;;;;;;;;;;;;;;30.54;25.15;98476.31;6578962;21;20000;-76
2024/04/26 10:27:49;;;;;;;;;;;;;;;30.64;25.69;98476.41;6581794;21;19928;-74
2024/04/26 10:30:17;;;;;;;;;;;;;;;30.54;26.07;98479.81;6580154;21;20225;-75
2024/04/26 10:32:43;;;;;;;;;;;;;;;30.56;25.71;98468.78;6579430;21;19933;-76
2024/04/26 10:35:18;;;;;;;;;;;;;;;30.47;26.77;98465.72;6581863;21;19964;-75
2024/04/26 10:37:43;;;;;;;;;;;;;;;30.29;27.02;98467.66;6535146;21;19922;-74
2024/04/26 10:40:10;;;;;;;;;;;;;;;30.16;27.26;98470.75;6580052;21;19967;-75
2024/04/26 10:42:41;;;;;;;;;;;;;;;29.98;26.82;98469.19;6578904;21;19921;-75
2024/04/26 10:45:06;;;;;;;;;;;;;;;29.78;27.21;98472.41;6579282;21;19929;-79
2024/04/26 10:47:32;;;;;;;;;;;;;;;29.65;26.87;98470.91;6537012;21;20210;-73
2024/04/26 10:49:57;;;;;;;;;;;;;;;29.53;27.04;98471.00;6580488;21;19927;-73
2024/04/26 10:52:23;;;;;;;;;;;;;;;29.29;27.46;98464.19;6580041;21;19988;-73
2024/04/26 10:54:49;;;;;;;;;;;;;;;29.09;27.79;98462.78;6580233;21;19921;-74
2024/04/26 10:57:19;;;;;;;;;;;;;;;28.83;28.09;98466.94;6579854;21;19921;-73
2024/04/26 10:59:45;;;;;;;;;;;;;;;28.63;28.70;98462.00;6580671;21;19921;-74
2024/04/26 11:02:10;;;;;;;;;;;;;;;28.57;28.51;98460.25;6581494;21;20225;-75
2024/04/26 11:04:36;;;;;;;;;;;;;;;28.60;28.68;98462.50;6582339;21;19929;-73
2024/04/26 11:07:14;;;;;;;;;;;;;;;28.44;28.72;98470.22;6583764;21;19925;-74
2024/04/26 11:09:47;;;;;;;;;;;;;;;28.31;29.31;98460.59;6538168;21;19921;-74
2024/04/26 11:12:12;;;;;;;;;;;;;;;28.20;29.58;98466.03;6538206;21;19929;-74
2024/04/26 11:14:38;;;;;;;;;;;;;;;28.08;29.26;98466.03;6582095;21;19983;-75
2024/04/26 11:17:03;;;;;;;;;;;;;;;28.06;29.68;98465.47;6581842;21;19930;-75
2024/04/26 11:19:30;;;;;;;;;;;;;;;27.92;30.06;98470.25;6537757;21;19921;-73
2024/04/26 11:21:55;;;;;;;;;;;;;;;27.77;30.01;98471.56;6536669;21;19929;-73
2024/04/26 11:24:20;;;;;;;;;;;;;;;27.69;28.83;98463.03;6581396;21;20275;-73
2024/04/26 11:26:46;;;;;;;;;;;;;;;27.55;29.35;98462.50;6581374;21;20333;-74
2024/04/26 11:29:14;;;;;;;;;;;;;;;27.46;29.57;98466.59;6581562;21;19933;-75
2024/04/26 11:31:40;;;;;;;;;;;;;;;27.29;30.12;98466.41;6581702;21;19921;-74
2024/04/26 11:34:06;;;;;;;;;;;;;;;27.11;30.46;98464.66;6582061;21;19929;-73
2024/04/26 11:36:31;;;;;;;;;;;;;;;27.11;30.29;98464.66;6581247;21;20332;-75
2024/04/26 11:38:56;;;;;;;;;;;;;;;27.04;30.65;98462.91;6537815;21;19921;-76
2024/04/26 11:41:21;;;;;;;;;;;;;;;26.97;30.30;98466.75;6538141;21;19921;-75
2024/04/26 11:43:47;;;;;;;;;;;;;;;26.95;30.88;98464.28;6537471;21;20206;-74
2024/04/26 11:46:12;;;;;;;;;;;;;;;26.89;31.27;98463.34;6581209;21;19927;-77
2024/04/26 11:48:38;;;;;;;;;;;;;;;26.84;30.73;98468.56;6536441;21;19921;-74
2024/04/26 11:51:03;;;;;;;;;;;;;;;26.78;30.27;98472.16;6537398;21;19932;-75
2024/04/26 11:53:28;;;;;;;;;;;;;;;26.69;30.11;98470.84;6581143;21;19929;-74
2024/04/26 11:55:53;;;;;;;;;;;;;;;26.58;29.92;98468.91;6583731;21;19925;-73
2024/04/26 11:58:19;;;;;;;;;;;;;;;26.54;30.00;98457.88;6582908;21;20261;-74
2024/04/26 12:00:44;;;;;;;;;;;;;;;26.48;30.97;98467.59;6582941;21;19921;-74
2024/04/26 12:03:09;;;;;;;;;;;;;;;26.45;31.25;98465.38;6537621;21;19921;-73
2024/04/26 12:05:41;;;;;;;;;;;;;;;26.45;30.55;98456.53;6579733;21;19928;-73
2024/04/26 12:08:06;;;;;;;;;;;;;;;26.34;32.27;98471.50;6580663;21;19921;-76
2024/04/26 12:10:31;;;;;;;;;;;;;;;25.96;30.60;98462.66;6581522;21;19964;-73
2024/04/26 12:12:57;;;;;;;;;;;;;;;25.85;30.89;98466.09;6582705;21;19921;-74
2024/04/26 12:15:22;;;;;;;;;;;;;;;25.60;30.26;98467.00;6537411;21;19921;-75
2024/04/26 12:17:48;;;;;;;;;;;;;;;25.51;30.44;98467.47;6580634;21;19928;-76
2024/04/26 12:20:13;;;;;;;;;;;;;;;25.42;30.52;98454.41;6580739;21;19928;-76
2024/04/26 12:22:38;;;;;;;;;;;;;;;25.42;30.51;98457.06;6578850;21;19921;-76
2024/04/26 12:25:04;;;;;;;;;;;;;;;25.38;30.69;98469.25;6582510;21;19949;-75
2024/04/26 12:27:29;;;;;;;;;;;;;;;25.28;30.12;98468.91;6583073;21;19950;-75
2024/04/26 12:29:55;;;;;;;;;;;;;;;25.07;30.20;98464.75;6532698;21;20288;-75
2024/04/26 12:32:21;;;;;;;;;;;;;;;24.84;32.32;98470.66;6534544;21;20238;-77
2024/04/26 12:34:47;;;;;;;;;;;;;;;24.68;29.77;98467.47;6534916;21;19921;-78
2024/04/26 12:37:13;;;;;;;;;;;;;;;24.61;31.63;98458.72;6581180;21;19922;-77
2024/04/26 12:39:40;;;;;;;;;;;;;;;24.61;32.24;98463.25;6535923;21;19921;-75
2024/04/26 12:42:07;;;;;;;;;;;;;;;24.42;32.08;98462.28;6537116;21;19963;-76